Flight Track Log - Related Links

Times and Time Zones

All times are in EDT time to prevent confusion due to time zone crossing. See the BWA481 flight status page for this flight to view local times or setup timezone preferences in your user account.

Time Position Orientation Groundspeed Altitude Reporting Facility
EDT Latitude Longitude Course Direction KTS MPH feet Rate Location/Type
Fri 06:38:38 PM 26.0750 -80.1367 79° East 135 155 800  Level Miami Center
Fri 06:39:31 PM 26.0844 -80.0814 79° East 209 241 2,100 1,592 Climbing Miami Center
Fri 06:40:16 PM 26.0792 -80.0350 97° East 256 295 3,400 1,900 Climbing Miami Center
Fri 06:40:31 PM 26.0800 -80.0050 88° East 257 296 4,000 2,836 Climbing Miami Center
Fri 06:41:11 PM 26.0767 -79.9586 95° East 275 316 6,000 2,700 Climbing Miami Center
Fri 06:41:31 PM 26.0714 -79.9192 98° East 275 316 6,700 2,361 Climbing Miami Center
Fri 06:42:12 PM 26.0639 -79.8681 99° East 298 343 8,400 2,400 Climbing Miami Center
Fri 06:42:31 PM 26.0625 -79.8381 93° East 297 342 9,100 2,213 Climbing Miami Center
Fri 06:47:32 PM 25.9510 -79.2026 98° East 450 518 20,200 2,177 Climbing FlightAware ADS-B
Fri 06:48:43 PM 25.8991 -79.0506 120° Southeast 460 529 22,600 2,054 Climbing FlightAware ADS-B
Fri 06:49:23 PM 25.8543 -78.9671 120° Southeast 465 535 24,000 1,886 Climbing FlightAware ADS-B
Fri 06:49:53 PM 25.8209 -78.9048 120° Southeast 472 543 24,800 1,800 Climbing FlightAware ADS-B
Fri 06:50:23 PM 25.7862 -78.8404 120° Southeast 476 548 25,800 1,765 Climbing FlightAware ADS-B
Fri 06:51:01 PM 25.7463 -78.7617 111° Southeast 483 556 26,800 1,425 Climbing FlightAware ADS-B
Fri 06:51:43 PM 25.7241 -78.6579 102° East 491 565 27,700 1,275 Climbing FlightAware ADS-B
Fri 06:52:21 PM 25.7057 -78.5652 102° East 498 573 28,500 1,200 Climbing FlightAware ADS-B
Fri 06:53:03 PM 25.6842 -78.4572 102° East 508 585 29,300 1,167 Climbing FlightAware ADS-B
Fri 06:53:33 PM 25.6687 -78.3808 102° East 512 589 29,900 1,099 Climbing FlightAware ADS-B
Fri 06:54:14 PM 25.6452 -78.2797 110° East 519 597 30,600 1,043 Climbing FlightAware ADS-B
Fri 06:54:42 PM 25.6116 -78.2093 124° Southeast 522 601 31,100 1,345 Climbing FlightAware ADS-B
Fri 06:55:12 PM 25.5683 -78.1450 126° Southeast 519 597 31,900 1,574 Climbing FlightAware ADS-B
Fri 06:55:43 PM 25.5248 -78.0808 126° Southeast 516 594 32,700 1,391 Climbing FlightAware ADS-B
Fri 06:56:21 PM 25.4708 -78.0002 126° Southeast 513 590 33,500 1,183 Climbing FlightAware ADS-B
Fri 06:56:54 PM 25.4244 -77.9307 124° Southeast 516 594 34,100 1,029 Climbing FlightAware ADS-B
Fri 06:57:31 PM 25.3832 -77.8563 120° Southeast 519 597 34,700 1,029 Climbing FlightAware ADS-B
Fri 06:58:04 PM 25.3389 -77.7746 120° Southeast 519 597 35,300 1,068 Climbing FlightAware ADS-B
Fri 06:58:44 PM 25.2872 -77.6803 121° Southeast 519 597 36,000 923 Climbing FlightAware ADS-B
Fri 06:59:22 PM 25.2419 -77.5980 121° Southeast 519 597 36,500 759 Climbing FlightAware ADS-B
Fri 07:00:03 PM 25.1927 -77.5088 121° Southeast 519 597 37,000 423 Climbing FlightAware ADS-B
Fri 07:00:33 PM 25.1566 -77.4435 121° Southeast 518 596 37,000  Level FlightAware ADS-B
Fri 07:01:14 PM 25.1037 -77.3476 121° Southeast 518 596 37,000  Level FlightAware ADS-B
Fri 07:01:44 PM 25.0659 -77.2792 121° Southeast 518 596 37,000  Level FlightAware ADS-B
Fri 07:02:21 PM 25.0211 -77.1983 121° Southeast 517 595 37,000  Level FlightAware ADS-B
Fri 07:02:54 PM 24.9788 -77.1220 121° Southeast 517 595 37,000  Level FlightAware ADS-B
Fri 07:03:32 PM 24.9332 -77.0403 121° Southeast 515 593 37,000  Level FlightAware ADS-B
Fri 07:04:53 PM 24.8322 -76.8595 121° Southeast 514 592 37,000  Level FlightAware ADS-B
Fri 07:05:31 PM 24.7847 -76.7748 121° Southeast 513 590 37,000  Level FlightAware ADS-B
Fri 07:06:05 PM 24.7412 -76.6971 121° Southeast 513 590 37,000  Level FlightAware ADS-B
Fri 07:06:35 PM 24.7026 -76.6287 121° Southeast 513 590 37,000  Level FlightAware ADS-B
Fri 07:07:31 PM 24.6631 -76.5661 121° Southeast 516 594 37,000  Level Miami Center
Fri 07:08:31 PM 24.5894 -76.4314 121° Southeast 516 594 37,000  Level Miami Center
Fri 07:09:31 PM 24.5139 -76.2969 122° Southeast 516 594 37,000  Level Miami Center
Fri 07:10:31 PM 24.4486 -76.1808 122° Southeast 506 582 37,000  Level Miami Center
Fri 07:11:31 PM 24.3747 -76.0489 122° Southeast 506 582 37,000  Level Miami Center
Fri 07:12:31 PM 24.2986 -75.9150 122° Southeast 516 594 37,000  Level Miami Center
Fri 07:13:31 PM 24.2206 -75.7811 123° Southeast 516 594 37,000  Level Miami Center
Fri 07:14:31 PM 24.1400 -75.6361 121° Southeast 516 594 37,000  Level Miami Center
Fri 07:15:31 PM 24.0656 -75.5025 121° Southeast 516 594 37,000  Level Miami Center
Fri 07:16:31 PM 23.9892 -75.3714 123° Southeast 516 594 37,000  Level Miami Center
Fri 07:17:31 PM 23.9125 -75.2383 122° Southeast 516 594 37,000  Level Miami Center
Fri 07:18:31 PM 23.8336 -75.1053 123° Southeast 516 594 37,000  Level Miami Center
Fri 07:19:31 PM 23.7569 -74.9747 123° Southeast 516 594 37,000  Level Miami Center
Fri 07:20:31 PM 23.6800 -74.8419 122° Southeast 516 594 37,000  Level Miami Center
Fri 07:21:31 PM 23.6028 -74.7117 123° Southeast 516 594 37,000  Level Miami Center
Fri 07:22:31 PM 23.5278 -74.5814 122° Southeast 516 594 37,000  Level Miami Center
Fri 07:23:31 PM 23.4506 -74.4539 123° Southeast 516 594 37,000  Level Miami Center
Fri 07:24:31 PM 23.3731 -74.3217 123° Southeast 516 594 37,000  Level Miami Center
Fri 07:25:31 PM 23.2956 -74.1897 123° Southeast 516 594 37,000  Level Miami Center
Fri 07:26:31 PM 23.2244 -74.0625 121° Southeast 516 594 37,000  Level Miami Center
Fri 07:27:31 PM 23.1447 -73.9331 124° Southeast 516 594 37,000  Level Miami Center
Fri 07:28:31 PM 23.0689 -73.8017 122° Southeast 516 594 37,000  Level Miami Center
Fri 07:29:31 PM 23.0061 -73.6994 124° Southeast 516 594 37,000  Level Miami Center
Fri 07:35:23 PM 22.5529 -72.9833 124° Southeast 506 582 37,000  Level FlightAware ADS-B (MTPP / PAP)
Fri 07:36:23 PM 22.4341 -72.8018 125° Southeast 502 578 37,000  Level FlightAware ADS-B (MTPP / PAP)
Fri 07:36:51 PM 22.4000 -72.7500 125° Southeast 500 575 37,000  Level FlightAware ADS-B (MTPP / PAP)
Fri 07:37:20 PM 22.3576 -72.6858 125° Southeast 499 574 37,000  Level FlightAware ADS-B (MTPP / PAP)
Fri 07:37:51 PM 22.3159 -72.6226 125° Southeast 497 572 37,000  Level FlightAware ADS-B (MTPP / PAP)
Fri 07:38:23 PM 22.2734 -72.5581 125° Southeast 497 572 37,000  Level FlightAware ADS-B (MTPP / PAP)
Fri 07:38:51 PM 22.2374 -72.5036 125° Southeast 499 574 37,000  Level FlightAware ADS-B (MTPP / PAP)
Fri 07:39:11 PM 22.2132 -72.4670 125° Southeast 500 575 37,000  Level FlightAware ADS-B (MTPP / PAP)
Fri 07:40:31 PM 22.1108 -72.3208 125° Southeast 504 580 37,000  Level Miami Center
Fri 07:41:31 PM 22.0342 -72.2025 125° Southeast 497 572 37,000  Level Miami Center
Fri 07:42:31 PM 21.9533 -72.0800 125° Southeast 497 572 37,000  Level Miami Center
Fri 07:43:31 PM 21.8722 -71.9578 126° Southeast 497 572 37,000  Level Miami Center
Fri 07:44:31 PM 21.7911 -71.8381 126° Southeast 497 572 37,000  Level Miami Center
Fri 07:45:31 PM 21.7097 -71.7161 126° Southeast 497 572 37,000  Level Miami Center
Fri 07:46:31 PM 21.6283 -71.5942 126° Southeast 497 572 37,000  Level Miami Center
Fri 07:47:31 PM 21.5450 -71.4725 126° Southeast 497 572 37,000  Level Miami Center
Fri 07:48:31 PM 21.4614 -71.3533 127° Southeast 497 572 37,000  Level Miami Center
Fri 07:49:31 PM 21.3736 -71.2344 128° Southeast 502 578 37,000  Level Miami Center
Fri 07:50:31 PM 21.2894 -71.1022 124° Southeast 502 578 37,000  Level Miami Center
Fri 07:56:02 PM 20.8394 -70.4274 126° Southeast 495 570 37,000  Level FlightAware ADS-B (MTPP / PAP)
Fri 07:56:26 PM 20.8098 -70.3844 126° Southeast 495 570 37,000  Level FlightAware ADS-B (MTPP / PAP)
Fri 08:00:33 PM 20.4817 -69.9082 126° Southeast 488 562 37,000  Level FlightAware ADS-B (MTPP / PAP)
Fri 08:01:31 PM 20.4019 -69.8050 126° Southeast 490 564 37,000  Level Miami Center
Fri 08:02:31 PM 20.3217 -69.6875 126° Southeast 490 564 37,000  Level Miami Center
Fri 08:03:31 PM 20.2414 -69.5747 127° Southeast 485 558 37,000  Level Miami Center
Fri 08:04:31 PM 20.1611 -69.4600 127° Southeast 490 564 37,000  Level Miami Center
Fri 08:05:31 PM 20.0806 -69.3431 126° Southeast 490 564 37,000  Level Miami Center
Fri 08:06:31 PM 20.0022 -69.2283 126° Southeast 490 564 37,000  Level Miami Center
Fri 08:07:31 PM 19.9194 -69.1142 128° Southeast 490 564 37,000  Level Miami Center
Fri 08:08:31 PM 19.8389 -68.9997 127° Southeast 490 564 37,000  Level Miami Center
Fri 08:09:31 PM 19.7561 -68.8836 127° Southeast 490 564 37,000  Level Miami Center
Fri 08:10:31 PM 19.6778 -68.7739 127° Southeast 485 558 37,000  Level Miami Center
Fri 08:11:31 PM 19.5967 -68.6578 127° Southeast 485 558 37,000  Level Miami Center
Fri 08:12:31 PM 19.5142 -68.5486 129° Southeast 485 558 37,000  Level Miami Center
Fri 08:13:31 PM 19.4369 -68.4303 125° Southeast 485 558 37,000  Level Miami Center
Fri 08:14:31 PM 19.3519 -68.3169 128° Southeast 490 564 37,000  Level Miami Center
Fri 08:15:31 PM 19.2708 -68.1994 126° Southeast 495 570 37,000  Level Miami Center
Fri 08:16:50 PM 19.1667 -68.0333 124° Southeast 490 564 37,000  Level San Juan Center
Fri 08:17:50 PM 19.0667 -67.9333 137° Southeast 480 552 37,000  Level San Juan Center
Fri 08:18:51 PM 18.9667 -67.8333 137° Southeast 490 564 37,000  Level San Juan Center
Fri 08:19:51 PM 18.8667 -67.7333 137° Southeast 490 564 37,000  Level San Juan Center
Fri 08:20:51 PM 18.7667 -67.6333 137° Southeast 490 564 37,000  Level San Juan Center
Fri 08:21:51 PM 18.6667 -67.5333 137° Southeast 490 564 37,000  Level San Juan Center
Fri 08:22:52 PM 18.5667 -67.4333 137° Southeast 490 564 37,000  Level San Juan Center
Fri 08:23:52 PM 18.4500 -67.3500 146° Southeast 490 564 37,000  Level San Juan Center
Fri 08:24:53 PM 18.3500 -67.2500 136° Southeast 500 575 37,000  Level San Juan Center
Fri 08:25:53 PM 18.2500 -67.1500 136° Southeast 490 564 37,000  Level San Juan Center
Fri 08:26:53 PM 18.1500 -67.0500 136° Southeast 490 564 37,000  Level San Juan Center
Fri 08:27:54 PM 18.0500 -66.9500 136° Southeast 500 575 37,000  Level San Juan Center
Fri 08:28:54 PM 17.9500 -66.8667 142° Southeast 490 564 37,000  Level San Juan Center
Fri 08:29:55 PM 17.8167 -66.7500 140° Southeast 490 564 37,000  Level San Juan Center
Fri 08:30:55 PM 17.7167 -66.6500 136° Southeast 490 564 37,000  Level San Juan Center
Fri 08:31:55 PM 17.6167 -66.5500 136° Southeast 490 564 37,000  Level San Juan Center
Fri 08:32:56 PM 17.5167 -66.4667 142° Southeast 490 564 37,000 50 Level San Juan Center
Fri 08:33:56 PM 17.4167 -66.3667 136° Southeast 490 564 37,100 500 Climbing San Juan Center
Fri 08:34:56 PM 17.3167 -66.2667 136° Southeast 490 564 38,000 694 Climbing San Juan Center
Fri 08:35:57 PM 17.2167 -66.1833 141° Southeast 500 575 38,500 496 Climbing San Juan Center
Fri 08:36:57 PM 17.1167 -66.0833 136° Southeast 500 575 39,000 248 Climbing San Juan Center
Fri 08:37:58 PM 17.0000 -65.9833 141° Southeast 500 575 39,000  Level San Juan Center
Fri 08:38:58 PM 16.9000 -65.8833 136° Southeast 500 575 39,000  Level San Juan Center
Fri 08:39:58 PM 16.8000 -65.7833 136° Southeast 500 575 39,000  Level San Juan Center
Fri 08:40:59 PM 16.7000 -65.7000 141° Southeast 490 564 39,000  Level San Juan Center
Fri 08:41:59 PM 16.6000 -65.6000 136° Southeast 490 564 39,000  Level San Juan Center
Fri 08:43:00 PM 16.4833 -65.5000 141° Southeast 500 575 39,000  Level San Juan Center
Fri 08:44:00 PM 16.3833 -65.4000 136° Southeast 500 575 39,000  Level San Juan Center
Fri 08:45:00 PM 16.2833 -65.3167 141° Southeast 500 575 39,000  Level San Juan Center
Fri 08:46:01 PM 16.1833 -65.2167 136° Southeast 500 575 39,000  Level San Juan Center
Fri 08:47:01 PM 16.0667 -65.1167 141° Southeast 500 575 39,000  Level San Juan Center
Fri 08:48:02 PM 15.9500 -65.0167 141° Southeast 500 575 39,000  Level San Juan Center
Fri 08:49:02 PM 15.8500 -64.9167 136° Southeast 490 564 39,000  Level San Juan Center
Fri 08:50:02 PM 15.7667 -64.8333 136° Southeast 490 564 39,000  Level San Juan Center
Fri 08:51:03 PM 15.6667 -64.7500 141° Southeast 480 552 39,000  Level San Juan Center
Fri 08:52:03 PM 15.5667 -64.6500 136° Southeast 500 575 39,000  Level San Juan Center
Fri 08:53:03 PM 15.4500 -64.5667 145° Southeast 500 575 39,000  Level San Juan Center
Fri 08:54:04 PM 15.3333 -64.4500 136° Southeast 490 564 39,000 -50 Level San Juan Center
Fri 08:55:04 PM 15.2333 -64.3500 136° Southeast 490 564 38,900 -50 Descending San Juan Center
Fri 08:56:05 PM 15.1333 -64.2667 141° Southeast 500 575 38,900 50 Level San Juan Center
Fri 08:57:05 PM 15.0167 -64.1667 140° Southeast 500 575 39,000 -815 Climbing San Juan Center
Fri 09:38:54 PM 10.7125 -61.6334 139° Southeast 256 295 4,000 -840 Descending FlightAware ADS-B (TTPP / POS)
Fri 09:39:20 PM 10.6911 -61.6152 139° Southeast 258 297 3,500 -941 Descending FlightAware ADS-B (TTPP / POS)
Fri 09:39:45 PM 10.6730 -61.5995 139° Southeast 252 290 3,200 -1,375 Descending FlightAware ADS-B (TTPP / POS)
Fri 09:40:08 PM 10.6515 -61.5717 123° Southeast 249 287 2,400 -1,784 Descending FlightAware ADS-B (TTPP / POS)
Fri 09:40:22 PM 10.6424 -61.5576 122° Southeast 248 285 2,100 -882 Descending FlightAware ADS-B (TTPP / POS)
Fri 09:40:42 PM 10.6302 -61.5388 123° Southeast 237 273 1,900 -529 Descending FlightAware ADS-B (TTPP / POS)
Fri 09:40:56 PM 10.6218 -61.5259 123° Southeast 228 262 1,800 -414 Descending FlightAware ADS-B (TTPP / POS)
Fri 09:41:11 PM 10.6131 -61.5124 122° Southeast 222 255 1,700 -400 Descending FlightAware ADS-B (TTPP / POS)
Fri 09:41:26 PM 10.6054 -61.4988 118° Southeast 213 245 1,600 -387 Descending FlightAware ADS-B (TTPP / POS)
Fri 09:41:42 PM 10.5982 -61.4852 118° Southeast 204 235 1,500 -261 Descending FlightAware ADS-B (TTPP / POS)
Fri 09:41:49 PM 10.5955 -61.4790 106° East 190 219 1,500  Level FlightAware ADS-B (TTPP / POS)
Fri 09:41:57 PM 10.5946 -61.4725 91° East 181 208 1,500  Level FlightAware ADS-B (TTPP / POS)
Fri 09:42:11 PM 10.5948 -61.4611 90° East 167 192 1,500  Level FlightAware ADS-B (TTPP / POS)
Fri 09:42:34 PM 10.5949 -61.4436 88° East 154 177 1,500  Level FlightAware ADS-B (TTPP / POS)
Fri 09:42:51 PM 10.5949 -61.4322 90° East 146 168 1,500 -529 Level FlightAware ADS-B (TTPP / POS)
Fri 09:43:08 PM 10.5950 -61.4202 90° East 141 162 1,200 -833 Descending FlightAware ADS-B (TTPP / POS)
Fri 09:43:27 PM 10.5950 -61.4083 90° East 140 161 1,000 -545 Descending FlightAware ADS-B (TTPP / POS)
Fri 09:43:41 PM 10.5950 -61.3990 89° East 140 161 900 -638 Descending FlightAware ADS-B (TTPP / POS)
Fri 09:44:14 PM 10.5951 -61.3764 88° East 146 168 500 -248 Descending FlightAware ADS-B (TTPP / POS)
Fri 09:45:42 PM 10.5951 -61.3727 90° East 149 171 400 -68 Descending FlightAware ADS-B (TTPP / POS)
Fri 09:48:00 PM 10.6000 -61.3500 11° North  Level FlightAware Approximate
Fri 09:49:00 PM 10.5954 -61.3372 11° North  Level Estimated
Fri 09:50:00 PM 10.5954 -61.3372 11° North  Level Estimated
Fri 09:51:00 PM 10.5954 -61.3372 11° North  Level Estimated
Fri 09:52:00 PM 10.5954 -61.3372 11° North  Level Estimated
Fri 09:53:00 PM 10.5954 -61.3372 11° North  Level Estimated
Fri 09:54:00 PM 10.5954 -61.3372 11° North  Level Estimated
Fri 09:55:00 PM 10.5954 -61.3372 11° North  Level Estimated
Fri 09:56:00 PM 10.5954 -61.3372 11° North  Level Estimated
Fri 09:57:00 PM 10.5954 -61.3372 11° North  Level Estimated
Fri 09:58:00 PM 10.5954 -61.3372 11° North  Level Estimated
Fri 09:59:00 PM 10.5954 -61.3372 11° North  Level Estimated
Fri 10:00:00 PM 10.5954 -61.3372 11° North  Level Estimated
Fri 10:01:00 PM 10.5954 -61.3372 11° North  Level Estimated
Fri 10:02:00 PM 10.5954 -61.3372 11° North  Level Estimated

Login

Don't have an account? Register now (free) for customized features, flight alerts, and more!